Time;durP1;ratioP1;P1;durP2;ratioP2;P2;SDS_P1;SDS_P2;PMS_P1;PMS_P2;Temp;Humidity;BMP_temperature;BMP_pressure;BME280_temperature;BME280_humidity;BME280_pressure;Samples;Min_cycle;Max_cycle;Signal;HPM_P1;HPM_P2
2022/06/23 00:00:28;;;;;;;;;;;25.00;99.90;;;;;;5107741;28;19907;-74
2022/06/23 00:02:55;;;;;;;;;;;24.90;99.90;;;;;;5105419;28;20290;-74
2022/06/23 00:05:22;;;;;;;;;;;24.80;99.90;;;;;;5107917;28;19948;-73
2022/06/23 00:07:50;;;;;;;;;;;24.80;99.90;;;;;;5108748;28;19930;-74
2022/06/23 00:10:22;;;;;;;;;;;24.80;99.90;;;;;;5105602;28;19953;-74
2022/06/23 00:12:48;;;;;;;;;;;24.70;99.90;;;;;;5106522;28;20285;-74
2022/06/23 00:15:20;;;;;;;;;;;24.70;99.90;;;;;;5097848;28;19908;-74
2022/06/23 00:17:48;;;;;;;;;;;24.60;99.90;;;;;;5100796;28;19907;-74
2022/06/23 00:20:14;;;;;;;;;;;24.50;99.90;;;;;;5092355;28;19916;-74
2022/06/23 00:22:41;;;;;;;;;;;24.40;99.90;;;;;;5099502;28;19918;-74
2022/06/23 00:25:07;;;;;;;;;;;24.50;99.90;;;;;;5108633;28;19911;-73
2022/06/23 00:27:36;;;;;;;;;;;24.40;99.90;;;;;;5104866;28;19908;-73
2022/06/23 00:30:05;;;;;;;;;;;24.30;99.90;;;;;;5097204;28;19930;-73
2022/06/23 00:32:35;;;;;;;;;;;24.20;99.90;;;;;;5106804;28;20000;-74
2022/06/23 00:35:27;;;;;;;;;;;24.20;99.90;;;;;;5095044;28;20304;-74
2022/06/23 00:37:52;;;;;;;;;;;24.10;99.90;;;;;;5101230;28;19916;-73
2022/06/23 00:40:19;;;;;;;;;;;24.00;99.90;;;;;;5108044;28;19915;-73
2022/06/23 00:42:55;;;;;;;;;;;24.00;99.90;;;;;;5105946;28;20002;-73
2022/06/23 00:45:33;;;;;;;;;;;24.00;99.90;;;;;;5107169;28;19927;-73
2022/06/23 00:48:10;;;;;;;;;;;23.90;99.90;;;;;;5098610;28;19955;-73
2022/06/23 00:50:47;;;;;;;;;;;23.90;99.90;;;;;;5112900;28;19946;-74
2022/06/23 00:53:12;;;;;;;;;;;24.00;99.90;;;;;;5114611;28;19908;-73
2022/06/23 00:55:50;;;;;;;;;;;24.00;99.90;;;;;;5115164;28;19999;-73
2022/06/23 00:58:15;;;;;;;;;;;24.00;99.90;;;;;;5110553;28;19998;-73
2022/06/23 01:00:42;;;;;;;;;;;24.20;99.90;;;;;;5106719;28;20052;-73
2022/06/23 01:03:07;;;;;;;;;;;24.00;99.90;;;;;;5111069;28;20491;-73
2022/06/23 01:05:39;;;;;;;;;;;24.00;99.90;;;;;;5108422;28;19918;-73
2022/06/23 01:08:21;;;;;;;;;;;24.00;99.90;;;;;;5110374;28;19911;-73
2022/06/23 01:11:06;;;;;;;;;;;24.10;99.90;;;;;;5109548;28;19923;-72
2022/06/23 01:13:38;;;;;;;;;;;23.90;99.90;;;;;;5107575;28;19919;-74
2022/06/23 01:16:04;;;;;;;;;;;23.80;99.90;;;;;;5108774;28;19907;-73
2022/06/23 01:18:36;;;;;;;;;;;23.80;99.90;;;;;;5111281;28;20003;-73
2022/06/23 01:21:01;;;;;;;;;;;23.70;99.90;;;;;;5109533;28;19947;-73
2022/06/23 01:23:50;;;;;;;;;;;23.60;99.90;;;;;;5109724;28;19943;-73
2022/06/23 01:26:19;;;;;;;;;;;23.50;99.90;;;;;;5112993;28;19912;-73
2022/06/23 01:28:44;;;;;;;;;;;23.50;99.90;;;;;;5115660;27;20002;-73
2022/06/23 01:31:16;;;;;;;;;;;23.50;99.90;;;;;;5109806;28;20049;-74
2022/06/23 01:33:57;;;;;;;;;;;23.50;99.90;;;;;;5112645;28;19963;-73
2022/06/23 01:36:28;;;;;;;;;;;23.50;99.90;;;;;;5111054;28;19982;-73
2022/06/23 01:38:54;;;;;;;;;;;23.50;99.90;;;;;;5112002;28;19916;-74
2022/06/23 01:41:24;;;;;;;;;;;23.50;99.90;;;;;;5112192;28;20058;-74
2022/06/23 01:43:58;;;;;;;;;;;23.50;99.90;;;;;;5110310;28;20056;-74
2022/06/23 01:46:50;;;;;;;;;;;23.40;99.90;;;;;;5104698;28;19907;-73
2022/06/23 01:49:18;;;;;;;;;;;23.30;99.90;;;;;;5107120;28;19915;-73
2022/06/23 01:51:49;;;;;;;;;;;23.30;99.90;;;;;;5114566;28;20401;-73
2022/06/23 01:54:20;;;;;;;;;;;23.30;99.90;;;;;;5111300;28;19908;-74
2022/06/23 01:57:04;;;;;;;;;;;23.20;99.90;;;;;;5114293;27;19908;-73
2022/06/23 01:59:36;;;;;;;;;;;23.10;99.90;;;;;;5106709;28;20330;-74
2022/06/23 02:02:08;;;;;;;;;;;23.10;99.90;;;;;;5105414;28;19915;-73
2022/06/23 02:04:45;;;;;;;;;;;23.10;99.90;;;;;;5108078;28;19933;-73
2022/06/23 02:07:16;;;;;;;;;;;23.10;99.90;;;;;;5110635;28;19908;-73
2022/06/23 02:09:44;;;;;;;;;;;23.00;99.90;;;;;;5107607;28;20377;-73
2022/06/23 02:12:16;;;;;;;;;;;23.20;99.90;;;;;;5112355;28;20099;-73
2022/06/23 02:14:46;;;;;;;;;;;23.40;99.90;;;;;;5107905;28;19920;-73
2022/06/23 02:17:28;;;;;;;;;;;23.30;99.90;;;;;;5110764;28;19945;-73
2022/06/23 02:19:55;;;;;;;;;;;23.40;99.90;;;;;;5109293;28;20476;-73
2022/06/23 02:22:29;;;;;;;;;;;23.40;99.90;;;;;;5109878;28;20888;-73
2022/06/23 02:24:59;;;;;;;;;;;23.30;99.90;;;;;;5109278;28;19947;-73
2022/06/23 02:28:03;;;;;;;;;;;23.40;99.90;;;;;;5108763;28;20273;-74
2022/06/23 02:30:31;;;;;;;;;;;23.40;99.90;;;;;;5050251;28;20000;-72
2022/06/23 02:33:00;;;;;;;;;;;23.30;99.90;;;;;;5069024;28;19909;-72
2022/06/23 02:35:55;;;;;;;;;;;23.30;99.90;;;;;;5075115;28;19943;-73
2022/06/23 02:38:25;;;;;;;;;;;23.20;99.90;;;;;;5096460;28;19916;-73
2022/06/23 02:41:14;;;;;;;;;;;23.20;99.90;;;;;;5107710;28;20319;-73
2022/06/23 02:43:43;;;;;;;;;;;23.30;99.90;;;;;;5094910;28;19918;-73
2022/06/23 02:46:11;;;;;;;;;;;23.30;99.90;;;;;;5108649;28;19938;-74
2022/06/23 02:48:46;;;;;;;;;;;23.20;99.90;;;;;;5109867;28;19987;-73
2022/06/23 02:51:21;;;;;;;;;;;23.20;99.90;;;;;;5108844;28;20006;-72
2022/06/23 02:54:05;;;;;;;;;;;23.20;99.90;;;;;;5106044;28;20002;-73
2022/06/23 02:56:31;;;;;;;;;;;23.30;99.90;;;;;;5102375;28;19916;-73
2022/06/23 02:59:11;;;;;;;;;;;23.30;99.90;;;;;;5107624;28;19980;-74
2022/06/23 03:01:44;;;;;;;;;;;23.20;99.90;;;;;;5105819;28;19912;-73
2022/06/23 03:04:19;;;;;;;;;;;23.10;99.90;;;;;;5108027;28;19914;-73
2022/06/23 03:07:01;;;;;;;;;;;23.10;99.90;;;;;;5111326;28;19911;-73
2022/06/23 03:09:40;;;;;;;;;;;23.20;99.90;;;;;;5110191;28;19926;-73
2022/06/23 03:12:08;;;;;;;;;;;23.10;99.90;;;;;;5105474;28;20116;-73
2022/06/23 03:14:55;;;;;;;;;;;23.10;99.90;;;;;;5095617;28;20251;-74
2022/06/23 03:17:24;;;;;;;;;;;23.10;99.90;;;;;;5100267;28;19938;-74
2022/06/23 03:20:02;;;;;;;;;;;23.10;99.90;;;;;;5096443;28;19915;-74
2022/06/23 03:22:34;;;;;;;;;;;23.00;99.90;;;;;;5101846;28;20048;-73
2022/06/23 03:25:02;;;;;;;;;;;23.00;99.90;;;;;;5108300;28;19941;-74
2022/06/23 03:27:48;;;;;;;;;;;23.10;99.90;;;;;;5104071;28;20380;-73
2022/06/23 03:30:18;;;;;;;;;;;23.00;99.90;;;;;;5110137;28;19948;-74
2022/06/23 03:33:04;;;;;;;;;;;23.00;99.90;;;;;;5105749;28;20609;-74
2022/06/23 03:35:32;;;;;;;;;;;23.10;99.90;;;;;;5096967;28;20444;-71
2022/06/23 03:38:04;;;;;;;;;;;23.20;99.90;;;;;;5109347;28;19911;-74
2022/06/23 03:43:32;;;;;;;;;;;23.30;99.90;;;;;;5105900;28;19915;-73
2022/06/23 03:46:01;;;;;;;;;;;23.30;99.90;;;;;;5106752;28;20383;-73
2022/06/23 03:48:33;;;;;;;;;;;23.30;99.90;;;;;;5108409;28;19925;-73
2022/06/23 03:51:02;;;;;;;;;;;23.40;99.90;;;;;;5106259;28;19950;-72
2022/06/23 03:53:32;;;;;;;;;;;23.40;99.90;;;;;;5110202;28;19903;-73
2022/06/23 03:56:00;;;;;;;;;;;23.50;99.90;;;;;;5104428;28;19914;-72
2022/06/23 03:58:29;;;;;;;;;;;23.50;99.90;;;;;;5109387;28;19980;-73
2022/06/23 04:01:05;;;;;;;;;;;23.50;99.90;;;;;;5111514;28;19915;-73
2022/06/23 04:03:35;;;;;;;;;;;23.50;99.90;;;;;;5103771;28;19904;-74
2022/06/23 04:06:09;;;;;;;;;;;23.70;99.90;;;;;;5096711;28;19934;-73
2022/06/23 04:08:42;;;;;;;;;;;23.80;99.90;;;;;;5095976;28;19931;-74
2022/06/23 04:13:55;;;;;;;;;;;24.00;99.90;;;;;;5101825;28;20014;-73
2022/06/23 04:16:22;;;;;;;;;;;24.00;99.90;;;;;;5101645;28;19922;-73
2022/06/23 04:18:48;;;;;;;;;;;24.00;99.90;;;;;;5108657;28;19914;-73
2022/06/23 04:21:17;;;;;;;;;;;24.10;99.90;;;;;;5107149;28;19908;-73
2022/06/23 04:23:48;;;;;;;;;;;24.20;99.90;;;;;;5099110;28;19999;-73
2022/06/23 04:26:14;;;;;;;;;;;24.20;99.90;;;;;;5107494;28;19912;-73
2022/06/23 04:28:45;;;;;;;;;;;24.30;99.90;;;;;;5107068;28;20393;-73
2022/06/23 04:31:14;;;;;;;;;;;24.30;99.90;;;;;;5101649;28;19912;-72
2022/06/23 04:33:40;;;;;;;;;;;24.40;99.90;;;;;;5100545;28;20329;-72
2022/06/23 04:36:06;;;;;;;;;;;24.40;99.90;;;;;;5108904;28;19978;-73
2022/06/23 04:38:40;;;;;;;;;;;24.30;99.90;;;;;;5108175;28;20350;-72
2022/06/23 04:41:12;;;;;;;;;;;24.30;99.90;;;;;;5106233;28;19956;-73
2022/06/23 04:43:44;;;;;;;;;;;24.20;99.90;;;;;;5100487;28;19909;-73
2022/06/23 04:46:18;;;;;;;;;;;24.30;99.90;;;;;;5104205;28;19912;-71
2022/06/23 04:48:48;;;;;;;;;;;24.20;99.90;;;;;;5106974;28;19912;-71
2022/06/23 04:51:13;;;;;;;;;;;24.20;99.90;;;;;;5105288;28;19951;-71
2022/06/23 04:53:46;;;;;;;;;;;24.20;99.90;;;;;;5105654;28;19946;-72
2022/06/23 04:56:32;;;;;;;;;;;24.20;99.90;;;;;;5109801;28;19915;-73
2022/06/23 04:59:01;;;;;;;;;;;24.30;99.90;;;;;;5099948;28;19949;-73
2022/06/23 05:01:34;;;;;;;;;;;24.40;99.90;;;;;;5095293;28;19908;-73
2022/06/23 05:04:00;;;;;;;;;;;24.40;99.90;;;;;;5096187;28;19915;-71
2022/06/23 05:06:36;;;;;;;;;;;24.60;99.90;;;;;;5099079;28;20397;-76
2022/06/23 05:09:26;;;;;;;;;;;24.60;99.90;;;;;;5097559;28;19908;-74
2022/06/23 05:12:14;;;;;;;;;;;24.70;99.90;;;;;;5093237;28;19908;-72
2022/06/23 05:14:50;;;;;;;;;;;24.80;99.90;;;;;;5083318;28;19920;-72
2022/06/23 05:17:27;;;;;;;;;;;24.90;99.90;;;;;;5108419;28;19953;-72
2022/06/23 05:19:54;;;;;;;;;;;25.00;99.90;;;;;;5105214;28;19915;-73
2022/06/23 05:22:27;;;;;;;;;;;25.10;99.90;;;;;;5103382;28;19912;-63
2022/06/23 05:24:54;;;;;;;;;;;25.30;99.90;;;;;;5106053;28;19919;-62
2022/06/23 05:27:38;;;;;;;;;;;25.30;99.90;;;;;;5110767;28;19991;-62
2022/06/23 05:30:07;;;;;;;;;;;25.50;99.90;;;;;;5103227;28;19907;-67
2022/06/23 05:32:41;;;;;;;;;;;25.60;99.90;;;;;;5097280;28;19908;-61
2022/06/23 05:35:26;;;;;;;;;;;25.70;99.90;;;;;;5102751;28;20400;-64
2022/06/23 05:38:01;;;;;;;;;;;25.70;99.90;;;;;;5115378;28;20018;-59
2022/06/23 05:40:34;;;;;;;;;;;25.80;99.90;;;;;;5115645;28;19950;-62
2022/06/23 05:43:01;;;;;;;;;;;26.00;99.90;;;;;;5115259;28;19911;-62
2022/06/23 05:45:36;;;;;;;;;;;26.10;99.90;;;;;;5112815;28;20437;-60
2022/06/23 05:48:04;;;;;;;;;;;26.10;99.90;;;;;;5115332;28;19991;-61
2022/06/23 05:50:36;;;;;;;;;;;26.10;99.90;;;;;;5119073;28;19926;-62
2022/06/23 05:53:07;;;;;;;;;;;26.10;99.90;;;;;;5117160;28;20015;-65
2022/06/23 05:55:41;;;;;;;;;;;26.20;99.90;;;;;;5118257;28;19903;-61
2022/06/23 05:58:26;;;;;;;;;;;26.30;99.90;;;;;;5113815;28;19995;-60
2022/06/23 06:00:55;;;;;;;;;;;26.30;99.90;;;;;;5109807;28;19916;-62
2022/06/23 06:03:27;;;;;;;;;;;26.40;99.90;;;;;;5095200;28;19915;-61
2022/06/23 06:05:54;;;;;;;;;;;26.50;99.90;;;;;;5103769;28;19919;-62
2022/06/23 06:08:25;;;;;;;;;;;26.60;99.90;;;;;;5109740;28;19912;-64
2022/06/23 06:10:51;;;;;;;;;;;26.60;99.90;;;;;;5093005;28;19918;-61
2022/06/23 06:13:22;;;;;;;;;;;26.70;99.90;;;;;;5095831;28;19915;-58
2022/06/23 06:15:56;;;;;;;;;;;26.70;99.90;;;;;;5106300;28;20326;-61
2022/06/23 06:18:32;;;;;;;;;;;26.80;99.90;;;;;;5112734;28;20048;-60
2022/06/23 06:20:59;;;;;;;;;;;26.90;99.90;;;;;;5110426;28;19957;-58
2022/06/23 06:23:28;;;;;;;;;;;26.90;99.90;;;;;;5113305;28;19953;-59
2022/06/23 06:25:54;;;;;;;;;;;27.00;99.90;;;;;;5112968;28;20268;-61
2022/06/23 06:28:19;;;;;;;;;;;27.00;99.90;;;;;;5110821;28;19912;-63
2022/06/23 06:30:48;;;;;;;;;;;27.00;99.90;;;;;;5115236;28;19948;-59
2022/06/23 06:33:32;;;;;;;;;;;27.10;99.90;;;;;;5112833;28;19915;-63
2022/06/23 06:35:58;;;;;;;;;;;27.20;99.90;;;;;;5107877;28;20006;-60
2022/06/23 06:38:25;;;;;;;;;;;27.20;99.90;;;;;;5116304;28;19955;-62
2022/06/23 06:40:54;;;;;;;;;;;27.30;99.90;;;;;;5115989;28;19922;-65
2022/06/23 06:43:25;;;;;;;;;;;27.40;99.90;;;;;;5089128;28;20016;-61
2022/06/23 06:45:51;;;;;;;;;;;27.50;99.90;;;;;;5106125;28;20303;-61
2022/06/23 06:48:26;;;;;;;;;;;27.60;99.90;;;;;;5111071;28;19915;-61
2022/06/23 06:50:55;;;;;;;;;;;27.70;99.90;;;;;;5112774;28;20402;-62
2022/06/23 06:53:29;;;;;;;;;;;27.70;99.90;;;;;;5111461;28;19923;-61
2022/06/23 06:56:15;;;;;;;;;;;27.70;99.90;;;;;;5112964;28;19908;-65
2022/06/23 06:58:50;;;;;;;;;;;27.80;99.90;;;;;;5112793;28;19950;-64
2022/06/23 07:01:25;;;;;;;;;;;27.90;99.90;;;;;;5113835;28;19935;-61
2022/06/23 07:03:52;;;;;;;;;;;27.90;99.90;;;;;;5110262;28;19918;-61
2022/06/23 07:06:34;;;;;;;;;;;28.00;99.90;;;;;;5111248;28;20006;-63
2022/06/23 07:09:18;;;;;;;;;;;28.10;99.90;;;;;;5092118;28;19911;-63
2022/06/23 07:11:49;;;;;;;;;;;28.10;99.90;;;;;;5092416;28;19915;-63
2022/06/23 07:14:18;;;;;;;;;;;28.00;99.90;;;;;;5093894;28;20336;-65
2022/06/23 07:16:43;;;;;;;;;;;28.00;99.90;;;;;;5107788;28;19961;-61
2022/06/23 07:19:09;;;;;;;;;;;28.00;99.90;;;;;;5108718;28;19907;-60
2022/06/23 07:21:39;;;;;;;;;;;28.00;99.90;;;;;;5112560;28;20350;-61
2022/06/23 07:24:31;;;;;;;;;;;28.10;99.90;;;;;;5113336;28;19948;-63
2022/06/23 07:26:56;;;;;;;;;;;28.20;99.90;;;;;;5077122;28;20355;-62
2022/06/23 07:29:28;;;;;;;;;;;28.30;99.90;;;;;;5111289;28;19964;-61
2022/06/23 07:31:57;;;;;;;;;;;28.40;99.90;;;;;;5108068;28;20377;-62
2022/06/23 07:34:24;;;;;;;;;;;28.40;99.90;;;;;;5107593;28;19918;-60
2022/06/23 07:36:56;;;;;;;;;;;28.40;99.90;;;;;;5095977;28;20326;-62
2022/06/23 07:39:23;;;;;;;;;;;28.30;99.90;;;;;;5112503;28;20357;-62
2022/06/23 07:41:49;;;;;;;;;;;28.20;99.90;;;;;;5112679;28;19904;-60
2022/06/23 07:44:17;;;;;;;;;;;27.90;99.90;;;;;;5112585;28;20374;-61
2022/06/23 07:46:43;;;;;;;;;;;27.70;99.90;;;;;;5107264;28;19908;-67
2022/06/23 07:49:09;;;;;;;;;;;27.50;99.90;;;;;;5110282;28;19965;-61
2022/06/23 07:51:36;;;;;;;;;;;27.50;99.90;;;;;;5113195;28;19912;-59
2022/06/23 07:54:02;;;;;;;;;;;27.30;99.90;;;;;;5111794;28;19915;-63
2022/06/23 07:56:29;;;;;;;;;;;27.20;99.90;;;;;;5113894;28;19911;-67
2022/06/23 07:59:01;;;;;;;;;;;27.20;99.90;;;;;;5113536;28;19911;-62
2022/06/23 08:01:31;;;;;;;;;;;27.00;99.90;;;;;;5116189;28;19978;-61
2022/06/23 08:04:03;;;;;;;;;;;27.00;99.90;;;;;;5118511;28;20025;-60
2022/06/23 08:06:30;;;;;;;;;;;27.10;99.90;;;;;;5118208;28;19947;-60
2022/06/23 08:08:59;;;;;;;;;;;27.20;99.90;;;;;;5117111;28;19951;-66
2022/06/23 08:14:18;;;;;;;;;;;27.20;99.90;;;;;;5111557;28;20003;-63
2022/06/23 08:16:49;;;;;;;;;;;27.30;99.90;;;;;;5112905;28;19929;-61
2022/06/23 08:19:19;;;;;;;;;;;27.40;99.90;;;;;;5118506;28;19904;-62
2022/06/23 08:21:48;;;;;;;;;;;27.30;99.90;;;;;;5118050;28;19908;-61
2022/06/23 08:24:17;;;;;;;;;;;27.30;99.90;;;;;;5119132;28;19904;-62
2022/06/23 08:26:46;;;;;;;;;;;27.30;99.90;;;;;;5118702;28;19987;-61
2022/06/23 08:29:14;;;;;;;;;;;27.40;99.90;;;;;;5117779;28;19912;-58
2022/06/23 08:31:40;;;;;;;;;;;27.60;99.90;;;;;;5111642;28;20045;-59
2022/06/23 08:34:07;;;;;;;;;;;27.60;99.90;;;;;;5112427;28;19911;-63
2022/06/23 08:36:41;;;;;;;;;;;27.60;99.90;;;;;;5110531;28;20337;-63
2022/06/23 08:39:11;;;;;;;;;;;27.70;99.90;;;;;;5110255;28;20442;-63
2022/06/23 08:41:40;;;;;;;;;;;27.60;99.90;;;;;;5110644;28;20356;-64
2022/06/23 08:44:09;;;;;;;;;;;27.50;99.90;;;;;;5108625;28;19904;-64
2022/06/23 08:46:39;;;;;;;;;;;27.50;99.90;;;;;;5108655;28;19914;-62
2022/06/23 08:49:31;;;;;;;;;;;27.60;99.90;;;;;;5109856;28;19908;-64
2022/06/23 08:52:18;;;;;;;;;;;27.50;99.90;;;;;;5105485;28;19980;-61
2022/06/23 08:55:04;;;;;;;;;;;27.30;99.90;;;;;;5103764;28;19915;-63
2022/06/23 08:57:36;;;;;;;;;;;27.40;99.90;;;;;;5106445;28;19914;-63
2022/06/23 09:00:07;;;;;;;;;;;27.50;99.90;;;;;;5087760;28;20278;-62
2022/06/23 09:02:36;;;;;;;;;;;27.40;99.90;;;;;;5105281;28;19914;-60
2022/06/23 09:05:08;;;;;;;;;;;27.50;99.90;;;;;;5104328;28;19912;-63
2022/06/23 09:07:46;;;;;;;;;;;27.70;99.90;;;;;;5107904;28;19915;-63
2022/06/23 09:10:38;;;;;;;;;;;27.60;99.90;;;;;;5108969;28;20002;-62
2022/06/23 09:13:21;;;;;;;;;;;27.50;99.90;;;;;;5089073;28;19973;-63
2022/06/23 09:15:47;;;;;;;;;;;27.50;99.90;;;;;;5110086;28;19908;-63
2022/06/23 09:18:28;;;;;;;;;;;27.60;99.90;;;;;;5112450;28;20226;-64
2022/06/23 09:21:12;;;;;;;;;;;27.60;99.90;;;;;;5109910;28;19907;-64
2022/06/23 09:23:38;;;;;;;;;;;27.50;99.90;;;;;;5110840;28;19911;-62
2022/06/23 09:26:12;;;;;;;;;;;27.50;99.90;;;;;;5110884;28;19992;-64
2022/06/23 09:29:06;;;;;;;;;;;27.50;99.90;;;;;;5111729;28;19915;-61
2022/06/23 09:31:55;;;;;;;;;;;27.50;99.90;;;;;;5107473;28;19903;-60
2022/06/23 09:34:40;;;;;;;;;;;27.50;99.90;;;;;;5095264;28;19919;-61
2022/06/23 09:37:24;;;;;;;;;;;27.50;99.90;;;;;;5112248;28;19908;-63
2022/06/23 09:40:04;;;;;;;;;;;27.50;99.90;;;;;;5108305;28;20019;-63
2022/06/23 09:42:42;;;;;;;;;;;27.40;99.90;;;;;;5109561;28;20311;-64
2022/06/23 09:45:28;;;;;;;;;;;27.30;99.90;;;;;;5103025;28;19920;-63
2022/06/23 09:48:17;;;;;;;;;;;27.40;99.90;;;;;;5108908;28;19929;-61
2022/06/23 09:50:43;;;;;;;;;;;27.30;99.90;;;;;;5112908;28;20372;-62
2022/06/23 09:53:15;;;;;;;;;;;27.20;99.90;;;;;;5108187;28;19908;-62
2022/06/23 09:55:59;;;;;;;;;;;27.20;99.90;;;;;;5109602;28;20285;-63
2022/06/23 09:58:42;;;;;;;;;;;27.50;99.90;;;;;;5111983;28;19908;-63
2022/06/23 10:01:20;;;;;;;;;;;27.30;99.90;;;;;;5114516;28;19947;-62
2022/06/23 10:03:45;;;;;;;;;;;26.90;99.90;;;;;;5110414;28;19908;-63
2022/06/23 10:06:11;;;;;;;;;;;27.00;99.90;;;;;;5109208;28;19918;-63
2022/06/23 10:08:36;;;;;;;;;;;26.80;99.90;;;;;;5111802;28;19932;-62
2022/06/23 10:11:06;;;;;;;;;;;26.70;99.90;;;;;;5113134;28;19903;-64
2022/06/23 10:13:48;;;;;;;;;;;26.70;99.90;;;;;;5111011;28;19964;-66
2022/06/23 10:16:25;;;;;;;;;;;26.80;99.90;;;;;;5122501;27;20357;-65
2022/06/23 10:18:51;;;;;;;;;;;26.80;99.90;;;;;;5114390;28;19961;-61
2022/06/23 10:21:22;;;;;;;;;;;26.60;99.90;;;;;;5107214;28;19911;-65
2022/06/23 10:24:11;;;;;;;;;;;26.60;99.90;;;;;;5111816;28;19927;-63
2022/06/23 10:26:43;;;;;;;;;;;26.50;99.90;;;;;;5112157;28;19912;-63
2022/06/23 10:29:27;;;;;;;;;;;26.60;99.90;;;;;;5112459;28;19903;-64
2022/06/23 10:32:07;;;;;;;;;;;26.60;99.90;;;;;;5107064;28;20378;-64
2022/06/23 10:34:39;;;;;;;;;;;26.40;99.90;;;;;;5103696;28;19911;-64
2022/06/23 10:37:23;;;;;;;;;;;26.60;99.90;;;;;;5105517;28;19908;-63
2022/06/23 10:39:57;;;;;;;;;;;26.60;99.90;;;;;;5102954;28;19908;-62
2022/06/23 10:42:31;;;;;;;;;;;26.40;99.90;;;;;;5104617;28;19907;-62
2022/06/23 10:45:17;;;;;;;;;;;26.50;99.90;;;;;;5109206;28;19912;-62
2022/06/23 10:47:46;;;;;;;;;;;26.60;99.90;;;;;;5107094;28;19923;-63
2022/06/23 10:50:30;;;;;;;;;;;26.60;99.90;;;;;;5109633;28;19907;-64
2022/06/23 10:52:55;;;;;;;;;;;26.50;99.90;;;;;;5102169;28;19907;-65
2022/06/23 10:55:28;;;;;;;;;;;26.50;99.90;;;;;;5110532;28;19914;-63
2022/06/23 10:58:06;;;;;;;;;;;26.60;99.90;;;;;;5110448;28;19904;-64
2022/06/23 11:00:41;;;;;;;;;;;26.70;99.90;;;;;;5101942;28;19916;-64
2022/06/23 11:03:25;;;;;;;;;;;26.90;99.90;;;;;;5108346;28;19999;-65
2022/06/23 11:06:05;;;;;;;;;;;27.20;99.90;;;;;;5104081;28;19922;-65
2022/06/23 11:08:53;;;;;;;;;;;27.30;99.90;;;;;;5104276;28;19916;-62
2022/06/23 11:11:27;;;;;;;;;;;27.50;99.90;;;;;;5108808;28;20361;-65
2022/06/23 11:14:11;;;;;;;;;;;27.50;99.90;;;;;;5106596;28;20309;-63
2022/06/23 11:16:46;;;;;;;;;;;27.30;99.90;;;;;;5106695;28;19947;-66
2022/06/23 11:19:18;;;;;;;;;;;27.20;99.90;;;;;;5109567;28;19910;-66
2022/06/23 11:21:47;;;;;;;;;;;27.30;99.90;;;;;;5104773;28;19908;-64
2022/06/23 11:24:18;;;;;;;;;;;27.40;99.90;;;;;;5109908;28;19918;-63
2022/06/23 11:27:02;;;;;;;;;;;27.40;99.90;;;;;;5110258;28;20026;-63
2022/06/23 11:29:28;;;;;;;;;;;27.60;99.90;;;;;;5111583;28;19910;-63
2022/06/23 11:32:04;;;;;;;;;;;27.70;99.90;;;;;;5112167;28;19903;-63
2022/06/23 11:34:42;;;;;;;;;;;27.80;99.90;;;;;;5108557;28;19911;-63
2022/06/23 11:37:35;;;;;;;;;;;27.80;99.90;;;;;;5113384;28;20377;-62
2022/06/23 11:40:27;;;;;;;;;;;27.80;99.90;;;;;;5104184;28;19912;-62
2022/06/23 11:42:59;;;;;;;;;;;27.70;99.90;;;;;;5088001;28;19903;-64
2022/06/23 11:45:42;;;;;;;;;;;27.70;99.90;;;;;;5114654;28;19955;-63
2022/06/23 11:48:23;;;;;;;;;;;27.90;99.90;;;;;;5111293;28;19908;-65
2022/06/23 11:50:49;;;;;;;;;;;27.90;99.90;;;;;;5111828;28;19911;-63
2022/06/23 11:53:14;;;;;;;;;;;27.90;99.90;;;;;;5113569;28;20053;-64
2022/06/23 11:55:49;;;;;;;;;;;27.90;99.90;;;;;;5112381;28;19921;-64
2022/06/23 11:58:33;;;;;;;;;;;27.90;99.90;;;;;;5113928;28;19903;-64
2022/06/23 12:00:59;;;;;;;;;;;27.70;99.90;;;;;;5113461;28;19907;-64
2022/06/23 12:03:45;;;;;;;;;;;27.60;99.90;;;;;;5111606;28;19957;-62
2022/06/23 12:06:30;;;;;;;;;;;27.60;99.90;;;;;;5090932;28;19912;-64
2022/06/23 12:09:10;;;;;;;;;;;27.70;99.90;;;;;;5109402;28;19920;-63
2022/06/23 12:11:37;;;;;;;;;;;27.70;99.90;;;;;;5107801;28;19908;-66
2022/06/23 12:14:03;;;;;;;;;;;27.80;99.90;;;;;;5105687;28;19998;-64
2022/06/23 12:16:30;;;;;;;;;;;27.60;99.90;;;;;;5120004;28;20361;-65
2022/06/23 12:19:01;;;;;;;;;;;27.30;99.90;;;;;;5099300;28;20399;-64
2022/06/23 12:21:37;;;;;;;;;;;27.40;99.90;;;;;;5102292;27;20350;-66
2022/06/23 12:24:26;;;;;;;;;;;27.40;99.90;;;;;;5102994;28;19951;-67
2022/06/23 12:26:58;;;;;;;;;;;27.50;99.90;;;;;;5100258;28;19907;-65
2022/06/23 12:29:29;;;;;;;;;;;27.60;99.90;;;;;;5109066;28;19914;-62
2022/06/23 12:31:54;;;;;;;;;;;27.60;99.90;;;;;;5109417;28;19908;-65
2022/06/23 12:34:32;;;;;;;;;;;27.50;99.90;;;;;;5110837;28;20279;-64
2022/06/23 12:36:57;;;;;;;;;;;27.70;99.90;;;;;;5110788;28;19907;-66
2022/06/23 12:39:28;;;;;;;;;;;27.80;99.90;;;;;;5123266;27;20269;-65
2022/06/23 12:41:59;;;;;;;;;;;27.60;99.90;;;;;;5105980;27;19911;-65
2022/06/23 12:44:43;;;;;;;;;;;27.60;99.90;;;;;;5108264;28;20025;-63
2022/06/23 12:47:21;;;;;;;;;;;27.70;99.90;;;;;;5106223;28;19916;-65
2022/06/23 12:50:19;;;;;;;;;;;27.50;99.90;;;;;;5109151;28;19960;-63
2022/06/23 12:52:51;;;;;;;;;;;27.30;99.90;;;;;;5070521;28;19964;-64
2022/06/23 12:55:32;;;;;;;;;;;27.20;99.90;;;;;;5109961;28;19911;-62
2022/06/23 12:58:18;;;;;;;;;;;27.00;99.90;;;;;;5109542;28;19911;-64
2022/06/23 13:01:05;;;;;;;;;;;27.00;99.90;;;;;;5110302;28;19903;-64
2022/06/23 13:03:31;;;;;;;;;;;27.00;99.90;;;;;;5102910;28;19995;-63
2022/06/23 13:06:01;;;;;;;;;;;27.20;99.90;;;;;;5107696;28;20094;-62
2022/06/23 13:08:39;;;;;;;;;;;27.40;99.90;;;;;;5110406;28;20353;-63
2022/06/23 13:11:05;;;;;;;;;;;27.50;99.90;;;;;;5106895;28;19968;-64
2022/06/23 13:13:37;;;;;;;;;;;27.50;99.90;;;;;;5110705;28;19998;-64
2022/06/23 13:16:06;;;;;;;;;;;27.60;99.90;;;;;;5107545;28;19958;-64
2022/06/23 13:18:42;;;;;;;;;;;27.70;99.90;;;;;;5106897;28;19914;-64
2022/06/23 13:21:08;;;;;;;;;;;27.70;99.90;;;;;;5109402;28;20007;-64
2022/06/23 13:23:37;;;;;;;;;;;28.00;99.90;;;;;;5108341;28;19943;-62
2022/06/23 13:26:05;;;;;;;;;;;28.10;99.90;;;;;;5104891;28;19956;-64
2022/06/23 13:28:35;;;;;;;;;;;27.80;99.90;;;;;;5110990;28;19912;-64
2022/06/23 13:31:12;;;;;;;;;;;27.70;99.90;;;;;;5100773;28;19915;-62
2022/06/23 13:33:58;;;;;;;;;;;27.70;99.90;;;;;;5110009;28;20297;-64
2022/06/23 13:36:27;;;;;;;;;;;27.80;99.90;;;;;;5108353;28;19911;-65
2022/06/23 13:38:56;;;;;;;;;;;27.90;99.90;;;;;;5109331;28;19904;-65
2022/06/23 13:41:29;;;;;;;;;;;28.00;99.90;;;;;;5106000;28;20396;-64
2022/06/23 13:44:18;;;;;;;;;;;27.70;99.90;;;;;;5109362;28;19920;-65
2022/06/23 13:46:54;;;;;;;;;;;27.80;99.90;;;;;;5107676;28;19918;-64
2022/06/23 13:49:24;;;;;;;;;;;27.60;99.90;;;;;;5107262;28;19957;-64
2022/06/23 13:52:11;;;;;;;;;;;27.60;99.90;;;;;;5106377;28;20400;-63
2022/06/23 13:54:50;;;;;;;;;;;27.90;99.90;;;;;;5109223;28;19948;-62
2022/06/23 13:57:19;;;;;;;;;;;28.20;99.90;;;;;;5109627;28;19912;-66
2022/06/23 14:00:02;;;;;;;;;;;28.30;99.90;;;;;;5107021;28;19986;-65
2022/06/23 14:02:44;;;;;;;;;;;28.20;99.90;;;;;;5112735;28;19904;-65
2022/06/23 14:05:30;;;;;;;;;;;28.40;99.90;;;;;;5111382;28;20278;-65
2022/06/23 14:07:56;;;;;;;;;;;28.50;99.90;;;;;;5107061;28;19930;-64
2022/06/23 14:10:31;;;;;;;;;;;28.60;99.90;;;;;;5113008;28;19912;-63
2022/06/23 14:13:06;;;;;;;;;;;28.60;99.90;;;;;;5112543;28;19957;-62
2022/06/23 14:15:38;;;;;;;;;;;28.60;99.90;;;;;;5110241;28;19987;-63
2022/06/23 14:18:11;;;;;;;;;;;28.50;99.90;;;;;;5109317;28;20520;-64
2022/06/23 14:20:40;;;;;;;;;;;28.70;99.90;;;;;;5110794;28;19907;-63
2022/06/23 14:23:26;;;;;;;;;;;28.60;99.90;;;;;;5112313;28;19957;-63
2022/06/23 14:25:55;;;;;;;;;;;28.50;99.90;;;;;;5109845;28;19911;-63
2022/06/23 14:28:30;;;;;;;;;;;28.50;99.90;;;;;;5112516;28;19915;-64
2022/06/23 14:30:59;;;;;;;;;;;28.30;99.90;;;;;;5112392;28;19903;-65
2022/06/23 14:33:25;;;;;;;;;;;28.40;99.90;;;;;;5111672;28;20369;-64
2022/06/23 14:35:54;;;;;;;;;;;28.40;99.90;;;;;;5111463;28;19957;-66
2022/06/23 14:38:23;;;;;;;;;;;28.60;99.90;;;;;;5114403;27;20270;-63
2022/06/23 14:40:54;;;;;;;;;;;28.70;99.90;;;;;;5109054;28;19999;-64
2022/06/23 14:43:20;;;;;;;;;;;28.70;99.90;;;;;;5091632;28;19969;-65
2022/06/23 14:45:49;;;;;;;;;;;28.60;99.90;;;;;;5102097;28;19920;-63
2022/06/23 14:48:24;;;;;;;;;;;28.70;99.90;;;;;;5110786;28;21759;-65
2022/06/23 14:50:54;;;;;;;;;;;28.30;99.90;;;;;;5103592;28;20392;-62
2022/06/23 14:53:35;;;;;;;;;;;28.30;99.90;;;;;;5109231;28;19912;-62
2022/06/23 14:56:12;;;;;;;;;;;28.40;99.90;;;;;;5103520;27;19911;-63
2022/06/23 14:58:56;;;;;;;;;;;28.50;99.90;;;;;;5107559;28;19915;-64
2022/06/23 15:01:22;;;;;;;;;;;28.60;99.90;;;;;;5112021;28;19995;-62